createdAt,value
2018-06-15T00:01:02.296Z,78.44
2018-06-15T00:03:34.077Z,78.66
2018-06-15T00:06:03.715Z,79.30
2018-06-15T00:08:33.632Z,79.00
2018-06-15T00:11:03.605Z,79.46
2018-06-15T00:13:33.767Z,79.30
2018-06-15T00:16:03.793Z,80.00
2018-06-15T00:18:35.101Z,79.99
2018-06-15T00:21:06.178Z,80.18
2018-06-15T00:23:36.256Z,80.46
2018-06-15T00:26:06.214Z,80.93
2018-06-15T00:28:35.948Z,80.99
2018-06-15T00:31:05.560Z,80.76
2018-06-15T00:33:36.289Z,81.37
2018-06-15T00:36:08.292Z,81.13
2018-06-15T00:38:38.066Z,81.04
2018-06-15T00:41:08.855Z,81.40
2018-06-15T00:43:39.738Z,81.74
2018-06-15T00:46:09.823Z,81.77
2018-06-15T00:48:40.747Z,81.52
2018-06-15T00:51:10.501Z,81.72
2018-06-15T00:53:40.546Z,81.70
2018-06-15T00:56:10.481Z,81.87
2018-06-15T00:58:41.345Z,81.88
2018-06-15T01:01:11.740Z,82.27
2018-06-15T01:03:41.438Z,81.91
2018-06-15T01:06:11.907Z,81.21
2018-06-15T01:08:41.584Z,81.49
2018-06-15T01:11:11.264Z,81.69
2018-06-15T01:13:41.326Z,81.58
2018-06-15T01:16:11.010Z,81.29
2018-06-15T01:18:40.733Z,81.40
2018-06-15T01:21:10.412Z,81.42
2018-06-15T01:23:40.204Z,82.00
2018-06-15T01:26:10.276Z,81.64
2018-06-15T01:28:42.994Z,81.66
2018-06-15T01:31:12.865Z,81.98
2018-06-15T01:33:42.506Z,82.32
2018-06-15T01:36:12.625Z,81.87
2018-06-15T01:38:42.539Z,82.43
2018-06-15T01:41:12.263Z,81.94
2018-06-15T01:43:44.337Z,81.07
2018-06-15T01:46:14.281Z,80.04
2018-06-15T01:48:43.892Z,80.29
2018-06-15T01:51:18.295Z,80.07
2018-06-15T01:53:47.927Z,79.97
2018-06-15T01:56:18.086Z,80.58
2018-06-15T01:58:47.818Z,81.28
2018-06-15T02:01:18.960Z,81.80
2018-06-15T02:03:48.647Z,81.28
2018-06-15T02:06:18.406Z,80.61
2018-06-15T02:08:48.067Z,80.68
2018-06-15T02:11:17.934Z,81.14
2018-06-15T02:13:47.585Z,81.88
2018-06-15T02:16:17.802Z,82.19
2018-06-15T02:18:47.517Z,82.70
2018-06-15T02:21:21.304Z,82.90
2018-06-15T02:23:51.140Z,83.54
2018-06-15T02:26:22.280Z,83.22
2018-06-15T02:28:54.511Z,83.74
2018-06-15T02:31:24.169Z,83.71
2018-06-15T02:33:53.882Z,83.69
2018-06-15T02:36:23.560Z,83.84
2018-06-15T02:38:53.180Z,84.01
2018-06-15T02:41:23.163Z,84.12
2018-06-15T02:43:53.380Z,83.90
2018-06-15T02:46:23.096Z,84.07
2018-06-15T02:48:52.810Z,84.03
2018-06-15T02:51:27.992Z,83.24
2018-06-15T02:53:57.652Z,83.04
2018-06-15T02:56:27.954Z,83.63
2018-06-15T02:58:57.756Z,83.74
2018-06-15T03:01:31.175Z,84.09
2018-06-15T03:04:02.497Z,83.59
2018-06-15T03:06:32.417Z,84.17
2018-06-15T03:09:04.720Z,83.86
2018-06-15T03:11:34.498Z,83.42
2018-06-15T03:14:04.290Z,83.76
2018-06-15T03:16:35.345Z,83.60
2018-06-15T03:19:05.107Z,83.55
2018-06-15T03:21:35.825Z,83.79
2018-06-15T03:27:00.563Z,83.53
2018-06-15T03:29:31.398Z,83.41
2018-06-15T03:32:02.261Z,83.61
2018-06-15T03:34:33.417Z,83.74
2018-06-15T03:37:03.939Z,83.45
2018-06-15T03:39:34.628Z,82.70
2018-06-15T03:42:05.522Z,82.54
2018-06-15T03:44:36.101Z,82.44
2018-06-15T03:47:06.940Z,82.42
2018-06-15T03:49:37.557Z,82.22
2018-06-15T03:52:09.834Z,82.15
2018-06-15T03:54:40.332Z,82.32
2018-06-15T03:57:11.120Z,82.21
2018-06-15T03:59:43.101Z,82.55
2018-06-15T04:02:14.069Z,82.98
2018-06-15T04:04:47.500Z,82.77
2018-06-15T04:07:18.136Z,82.88
2018-06-15T04:09:50.482Z,82.53
2018-06-15T04:12:22.653Z,82.39
2018-06-15T04:14:53.400Z,82.99
2018-06-15T04:17:25.065Z,83.10
2018-06-15T04:19:55.644Z,82.72
2018-06-15T04:22:26.425Z,82.27
2018-06-15T04:24:58.107Z,82.60
2018-06-15T04:27:30.072Z,82.56
2018-06-15T04:30:00.747Z,82.59
2018-06-15T04:32:31.718Z,82.17
2018-06-15T04:35:07.201Z,82.27
2018-06-15T04:37:37.758Z,81.62
2018-06-15T04:40:08.529Z,82.00
2018-06-15T04:42:40.164Z,81.54
2018-06-15T04:45:10.788Z,81.23
2018-06-15T04:47:42.170Z,81.30
2018-06-15T04:50:17.261Z,81.18
2018-06-15T04:52:47.810Z,81.24
2018-06-15T04:55:18.870Z,80.67
2018-06-15T04:57:49.529Z,80.71
2018-06-15T05:00:20.201Z,80.30
2018-06-15T05:02:50.829Z,80.03
2018-06-15T05:05:21.707Z,79.59
2018-06-15T05:07:54.564Z,79.70
2018-06-15T05:10:26.156Z,79.17
2018-06-15T05:12:57.085Z,79.03
2018-06-15T05:15:28.166Z,79.06
2018-06-15T05:17:59.246Z,78.79
2018-06-15T05:20:30.188Z,78.70
2018-06-15T05:23:00.820Z,78.66
2018-06-15T05:25:31.640Z,78.27
2018-06-15T05:31:42.216Z,77.61
2018-06-15T05:34:14.037Z,77.70
2018-06-15T05:36:47.137Z,77.49
2018-06-15T05:39:17.785Z,77.44
2018-06-15T05:41:50.029Z,77.50
2018-06-15T05:44:21.429Z,77.07
2018-06-15T05:46:52.201Z,77.49
2018-06-15T05:49:24.207Z,77.32
2018-06-15T05:51:56.067Z,76.97
2018-06-15T05:54:26.691Z,76.93
2018-06-15T05:56:58.039Z,76.27
2018-06-15T05:59:32.532Z,76.24
2018-06-15T06:02:04.447Z,75.55
2018-06-15T06:04:35.523Z,75.78
2018-06-15T06:07:07.487Z,75.77
2018-06-15T06:09:38.426Z,75.31
2018-06-15T06:12:09.573Z,75.41
2018-06-15T06:14:40.142Z,76.24
2018-06-15T06:17:11.623Z,75.31
2018-06-15T06:19:43.322Z,75.30
2018-06-15T06:22:14.431Z,74.36
2018-06-15T06:24:46.424Z,75.12
2018-06-15T06:27:19.206Z,74.52
2018-06-15T06:29:49.984Z,74.52
2018-06-15T06:32:21.555Z,74.44
2018-06-15T06:34:54.909Z,74.20
2018-06-15T06:37:25.773Z,73.99
2018-06-15T06:39:57.228Z,73.50
2018-06-15T06:42:28.333Z,73.73
2018-06-15T06:44:59.426Z,73.24
2018-06-15T06:47:32.781Z,72.31
2018-06-15T06:50:07.391Z,72.12
2018-06-15T06:52:38.084Z,71.93
2018-06-15T06:55:09.515Z,71.00
2018-06-15T06:57:42.224Z,70.98
2018-06-15T07:00:14.118Z,70.86
2018-06-15T07:02:45.529Z,69.96
2018-06-15T07:05:16.953Z,69.26
2018-06-15T07:07:53.484Z,69.28
2018-06-15T07:10:24.381Z,69.18
2018-06-15T07:12:55.702Z,68.68
2018-06-15T07:15:26.925Z,67.58
2018-06-15T07:17:57.900Z,67.63
2018-06-15T07:20:29.153Z,66.35
2018-06-15T07:23:00.934Z,66.11
2018-06-15T07:25:33.090Z,65.86
2018-06-15T07:28:03.893Z,65.02
2018-06-15T07:30:34.625Z,64.74
2018-06-15T07:33:08.876Z,65.22
2018-06-15T07:35:40.549Z,64.48
2018-06-15T07:38:17.374Z,64.23
2018-06-15T07:40:50.468Z,64.50
2018-06-15T07:43:21.178Z,63.89
2018-06-15T07:45:53.435Z,63.13
2018-06-15T07:48:25.579Z,63.88
2018-06-15T07:50:57.304Z,62.17
2018-06-15T07:53:28.285Z,61.28
2018-06-15T07:56:02.425Z,60.72
2018-06-15T07:58:33.181Z,60.54
2018-06-15T08:01:04.089Z,61.45
2018-06-15T08:03:36.570Z,61.04
2018-06-15T08:06:07.959Z,59.15
2018-06-15T08:08:39.103Z,57.92
2018-06-15T08:11:10.776Z,56.79
2018-06-15T08:13:43.137Z,58.07
2018-06-15T08:16:13.966Z,55.97
2018-06-15T08:18:45.660Z,57.20
2018-06-15T08:21:17.646Z,56.25
2018-06-15T08:23:49.864Z,56.42
2018-06-15T08:26:21.419Z,56.35
2018-06-15T08:28:53.639Z,54.53
2018-06-15T08:31:24.821Z,54.53
2018-06-15T08:33:55.874Z,52.19
2018-06-15T08:36:28.419Z,53.85
2018-06-15T08:38:59.292Z,51.43
2018-06-15T08:41:30.238Z,53.04
2018-06-15T08:44:02.236Z,49.57
2018-06-15T08:46:36.097Z,50.53
2018-06-15T08:49:08.152Z,52.20
2018-06-15T08:51:39.803Z,50.62
2018-06-15T08:54:11.641Z,52.12
2018-06-15T08:56:42.467Z,50.61
2018-06-15T08:59:14.687Z,52.36
2018-06-15T09:01:47.566Z,51.78
2018-06-15T09:04:19.459Z,54.38
2018-06-15T09:06:54.206Z,52.72
2018-06-15T09:09:25.927Z,51.05
2018-06-15T09:12:02.445Z,49.48
2018-06-15T09:14:33.476Z,46.64
2018-06-15T09:17:04.257Z,45.08
2018-06-15T09:19:37.111Z,44.58
2018-06-15T09:22:07.825Z,45.32
2018-06-15T09:24:39.830Z,45.42
2018-06-15T09:27:11.929Z,43.13
2018-06-15T09:29:51.164Z,41.85
2018-06-15T09:32:22.254Z,40.73
2018-06-15T09:34:53.750Z,40.81
2018-06-15T09:37:27.263Z,41.52
2018-06-15T09:39:58.474Z,41.57
2018-06-15T09:42:29.670Z,40.42
2018-06-15T09:45:00.521Z,39.77
2018-06-15T09:47:39.230Z,38.42
2018-06-15T09:50:10.347Z,38.61
2018-06-15T09:52:42.562Z,39.45
2018-06-15T09:55:14.472Z,39.85
2018-06-15T09:57:47.223Z,36.80
2018-06-15T10:00:22.702Z,36.13
2018-06-15T10:02:53.360Z,36.23
2018-06-15T10:05:27.200Z,34.93
2018-06-15T10:07:59.344Z,35.99
2018-06-15T10:10:32.434Z,36.78
2018-06-15T10:13:04.607Z,36.78
2018-06-15T10:15:38.210Z,36.03
2018-06-15T10:18:09.704Z,34.20
2018-06-15T10:20:41.760Z,35.49
2018-06-15T10:23:12.790Z,36.04
2018-06-15T10:25:44.835Z,36.11
2018-06-15T10:28:16.685Z,34.86
2018-06-15T10:30:47.605Z,36.27
2018-06-15T10:33:20.211Z,35.85
2018-06-15T10:35:54.105Z,35.18
2018-06-15T10:38:28.346Z,33.09
2018-06-15T10:41:00.218Z,35.69
2018-06-15T10:43:34.427Z,36.87
2018-06-15T10:46:05.787Z,36.08
2018-06-15T10:48:37.645Z,33.70
2018-06-15T10:51:10.101Z,31.73
2018-06-15T10:53:43.998Z,33.80
2018-06-15T10:56:15.546Z,34.75
2018-06-15T10:58:46.696Z,32.30
2018-06-15T11:01:18.569Z,32.50
2018-06-15T11:03:50.520Z,31.36
2018-06-15T11:06:22.647Z,32.66
2018-06-15T11:08:54.435Z,34.15
2018-06-15T11:11:25.191Z,35.23
2018-06-15T11:13:56.465Z,35.18
2018-06-15T11:16:28.817Z,34.15
2018-06-15T11:19:02.979Z,35.88
2018-06-15T11:21:36.410Z,36.40
2018-06-15T11:24:08.499Z,36.78
2018-06-15T11:26:39.621Z,39.50
2018-06-15T11:29:11.131Z,41.46
2018-06-15T11:31:46.557Z,40.32
2018-06-15T11:34:18.224Z,43.10
2018-06-15T11:36:49.307Z,46.42
2018-06-15T11:39:20.420Z,42.64
2018-06-15T11:41:50.978Z,43.17
2018-06-15T11:44:23.273Z,42.53
2018-06-15T11:46:54.387Z,45.41
2018-06-15T11:49:26.234Z,41.45
2018-06-15T11:51:57.204Z,42.87
2018-06-15T11:54:29.659Z,40.09
2018-06-15T11:57:00.416Z,37.49
2018-06-15T11:59:31.049Z,36.54
2018-06-15T12:02:04.547Z,34.73
2018-06-15T12:04:41.462Z,34.63
2018-06-15T12:07:14.186Z,35.14
2018-06-15T12:09:51.701Z,33.98
2018-06-15T12:12:22.717Z,30.69
2018-06-15T12:14:53.469Z,28.85
2018-06-15T12:17:24.499Z,25.60
2018-06-15T12:20:00.764Z,28.15
2018-06-15T12:22:33.536Z,27.95
2018-06-15T12:25:06.581Z,29.33
2018-06-15T12:27:40.203Z,28.25
2018-06-15T12:30:15.477Z,28.92
2018-06-15T12:32:48.662Z,28.55
2018-06-15T12:35:22.320Z,29.59
2018-06-15T12:37:55.100Z,27.54
2018-06-15T12:40:28.368Z,27.32
2018-06-15T12:43:01.689Z,26.40
2018-06-15T12:48:27.219Z,28.86
2018-06-15T12:51:01.792Z,28.89
2018-06-15T12:53:33.088Z,28.70
2018-06-15T12:56:05.252Z,27.24
2018-06-15T12:58:41.348Z,26.53
2018-06-15T13:01:41.191Z,28.89
2018-06-15T13:04:12.555Z,30.04
2018-06-15T13:06:46.110Z,30.65
2018-06-15T13:09:17.472Z,31.87
2018-06-15T13:11:48.559Z,31.27
2018-06-15T13:14:31.293Z,29.28
2018-06-15T13:17:06.640Z,27.35
2018-06-15T13:19:37.944Z,27.66
2018-06-15T13:22:14.351Z,28.77
2018-06-15T13:24:45.566Z,31.79
2018-06-15T13:27:19.560Z,35.41
2018-06-15T13:29:51.544Z,33.98
2018-06-15T13:32:22.606Z,36.20
2018-06-15T13:34:53.384Z,35.17
2018-06-15T13:40:08.901Z,26.15
2018-06-15T13:42:40.257Z,26.06
2018-06-15T13:45:12.330Z,28.75
2018-06-15T13:47:44.567Z,30.83
2018-06-15T13:50:15.655Z,36.29
2018-06-15T13:52:48.645Z,38.46
2018-06-15T13:55:19.759Z,38.30
2018-06-15T13:57:52.760Z,37.31
2018-06-15T14:00:23.947Z,33.17
2018-06-15T14:02:57.891Z,30.29
2018-06-15T14:05:29.292Z,27.23
2018-06-15T14:08:00.571Z,29.39
2018-06-15T14:10:31.660Z,32.10
2018-06-15T14:13:17.653Z,33.08
2018-06-15T14:15:52.894Z,35.17
2018-06-15T14:18:24.794Z,36.87
2018-06-15T14:21:05.666Z,37.63
2018-06-15T14:23:36.613Z,40.91
2018-06-15T14:26:10.406Z,35.53
2018-06-15T14:28:43.185Z,31.66
2018-06-15T14:31:14.617Z,26.75
2018-06-15T14:33:46.280Z,23.28
2018-06-15T14:36:20.636Z,25.25
2018-06-15T14:38:57.194Z,28.20
2018-06-15T14:41:27.908Z,31.04
2018-06-15T14:44:01.034Z,33.44
2018-06-15T14:46:43.354Z,36.00
2018-06-15T14:49:15.219Z,38.32
2018-06-15T14:51:50.328Z,39.28
2018-06-15T14:54:22.282Z,41.43
2018-06-15T14:56:55.224Z,38.69
2018-06-15T14:59:27.446Z,40.04
2018-06-15T15:02:03.526Z,41.78
2018-06-15T15:04:38.569Z,39.23
2018-06-15T15:07:09.891Z,38.35
2018-06-15T15:09:43.069Z,32.58
2018-06-15T15:12:18.663Z,29.28
2018-06-15T15:14:49.816Z,25.35
2018-06-15T15:17:22.929Z,25.07
2018-06-15T15:19:58.860Z,23.35
2018-06-15T15:22:31.266Z,22.62
2018-06-15T15:25:08.051Z,21.45
2018-06-15T15:27:42.109Z,21.89
2018-06-15T15:33:39.800Z,24.35
2018-06-15T15:36:13.211Z,25.80
2018-06-15T15:38:44.541Z,27.09
2018-06-15T15:41:15.211Z,29.51
2018-06-15T15:43:46.932Z,30.46
2018-06-15T15:46:19.764Z,30.86
2018-06-15T15:48:53.218Z,32.83
2018-06-15T15:51:25.694Z,34.79
2018-06-15T15:53:56.437Z,36.12
2018-06-15T15:56:28.611Z,37.78
2018-06-15T15:59:00.448Z,38.63
2018-06-15T16:01:31.266Z,38.74
2018-06-15T16:04:05.235Z,36.29
2018-06-15T16:06:36.541Z,36.24
2018-06-15T16:09:09.204Z,35.70
2018-06-15T16:11:39.934Z,37.66
2018-06-15T16:14:15.725Z,38.96
2018-06-15T16:16:46.850Z,39.85
2018-06-15T16:19:19.680Z,40.84
2018-06-15T16:21:51.233Z,42.82
2018-06-15T16:24:22.407Z,42.60
2018-06-15T16:26:53.239Z,43.10
2018-06-15T16:29:23.937Z,44.57
2018-06-15T16:31:55.037Z,43.54
2018-06-15T16:34:26.379Z,43.77
2018-06-15T16:37:02.470Z,45.86
2018-06-15T16:39:52.097Z,44.71
2018-06-15T16:45:11.551Z,45.86
2018-06-15T16:47:45.357Z,46.92
2018-06-15T16:50:28.335Z,49.72
2018-06-15T16:53:08.092Z,49.55
2018-06-15T16:55:46.104Z,48.09
2018-06-15T16:58:23.681Z,48.71
2018-06-15T17:00:55.704Z,50.39
2018-06-15T17:03:28.483Z,48.97
2018-06-15T17:06:03.799Z,52.28
2018-06-15T17:08:36.237Z,53.40
2018-06-15T17:11:11.210Z,51.57
2018-06-15T17:13:43.216Z,53.02
2018-06-15T17:16:14.591Z,55.76
2018-06-15T17:18:53.824Z,53.16
2018-06-15T17:21:25.896Z,56.96
2018-06-15T17:24:01.929Z,56.96
2018-06-15T17:26:33.206Z,54.58
2018-06-15T17:31:47.544Z,55.56
2018-06-15T17:34:18.347Z,56.15
2018-06-15T17:36:51.330Z,55.48
2018-06-15T17:39:25.709Z,56.38
2018-06-15T17:41:56.594Z,56.41
2018-06-15T17:44:28.262Z,56.25
2018-06-15T17:47:15.217Z,56.01
2018-06-15T17:49:48.815Z,57.36
2018-06-15T17:52:23.539Z,57.46
2018-06-15T17:54:59.231Z,57.32
2018-06-15T17:57:32.708Z,57.58
2018-06-15T18:00:06.111Z,58.55
2018-06-15T18:02:41.293Z,58.38
2018-06-15T18:05:16.830Z,58.49
2018-06-15T18:07:54.292Z,57.62
2018-06-15T18:10:26.388Z,57.65
2018-06-15T18:13:03.168Z,58.36
2018-06-15T18:15:38.868Z,58.44
2018-06-15T18:18:12.467Z,59.04
2018-06-15T18:20:51.210Z,58.94
2018-06-15T18:23:28.426Z,58.95
2018-06-15T18:26:00.095Z,59.70
2018-06-15T18:28:52.904Z,60.22
2018-06-15T18:31:29.046Z,61.17
2018-06-15T18:34:02.584Z,61.89
2018-06-15T18:37:17.439Z,62.15
2018-06-15T18:39:51.316Z,62.37
2018-06-15T18:42:25.101Z,62.86
2018-06-15T18:44:57.427Z,63.31
2018-06-15T18:47:29.504Z,62.80
2018-06-15T18:50:03.228Z,62.71
2018-06-15T18:52:36.988Z,63.54
2018-06-15T18:55:12.762Z,64.17
2018-06-15T18:57:44.395Z,64.13
2018-06-15T19:00:18.935Z,64.25
2018-06-15T19:02:56.846Z,65.51
2018-06-15T19:05:32.085Z,64.94
2018-06-15T19:08:08.056Z,64.89
2018-06-15T19:10:42.875Z,65.42
2018-06-15T19:13:17.864Z,65.57
2018-06-15T19:16:15.253Z,66.18
2018-06-15T19:18:49.891Z,66.29
2018-06-15T19:21:22.235Z,66.85
2018-06-15T19:23:58.112Z,67.37
2018-06-15T19:26:32.259Z,67.35
2018-06-15T19:29:06.061Z,66.80
2018-06-15T19:31:42.680Z,67.98
2018-06-15T19:34:16.823Z,68.50
2018-06-15T19:36:50.502Z,68.80
2018-06-15T19:42:11.728Z,69.39
2018-06-15T19:44:43.299Z,68.36
2018-06-15T19:47:16.473Z,68.59
2018-06-15T19:49:48.938Z,68.91
2018-06-15T19:52:29.089Z,69.18
2018-06-15T19:55:03.498Z,69.17
2018-06-15T19:57:36.591Z,68.81
2018-06-15T20:00:10.536Z,69.02
2018-06-15T20:02:59.556Z,69.77
2018-06-15T20:05:53.587Z,69.18
2018-06-15T20:08:32.808Z,69.82
2018-06-15T20:11:05.986Z,70.40
2018-06-15T20:13:45.080Z,70.09
2018-06-15T20:16:18.225Z,70.20
2018-06-15T20:18:57.668Z,69.89
2018-06-15T20:21:35.438Z,70.29
2018-06-15T20:24:18.905Z,70.77
2018-06-15T20:26:55.743Z,70.65
2018-06-15T20:32:13.651Z,71.87
2018-06-15T20:34:45.677Z,72.52
2018-06-15T20:37:17.588Z,72.58
2018-06-15T20:39:51.261Z,71.99
2018-06-15T20:42:24.250Z,72.80
2018-06-15T20:45:03.384Z,72.77
2018-06-15T20:47:35.365Z,74.14
2018-06-15T20:50:11.338Z,73.57
2018-06-15T20:52:45.724Z,73.51
2018-06-15T20:55:20.105Z,73.98
2018-06-15T20:57:51.842Z,74.18
2018-06-15T21:00:27.639Z,74.60
2018-06-15T21:03:01.232Z,75.06
2018-06-15T21:05:38.547Z,75.23
2018-06-15T21:08:12.104Z,75.12
2018-06-15T21:10:45.687Z,75.82
2018-06-15T21:13:20.963Z,75.86
2018-06-15T21:15:53.528Z,74.97
2018-06-15T21:18:30.722Z,75.49
2018-06-15T21:21:10.471Z,75.14
2018-06-15T21:23:50.310Z,75.28
2018-06-15T21:29:09.547Z,76.58
2018-06-15T21:31:46.476Z,76.19
2018-06-15T21:34:20.060Z,76.72
2018-06-15T21:36:51.893Z,76.48
2018-06-15T21:39:25.285Z,77.39
2018-06-15T21:42:01.282Z,77.20
2018-06-15T21:44:33.200Z,77.30
2018-06-15T21:47:10.103Z,77.10
2018-06-15T21:49:41.165Z,77.72
2018-06-15T21:52:15.227Z,78.04
2018-06-15T21:57:57.295Z,78.05
2018-06-15T22:00:28.906Z,77.78
2018-06-15T22:03:00.490Z,78.12
2018-06-15T22:05:36.236Z,78.74
2018-06-15T22:08:19.452Z,79.07
2018-06-15T22:10:56.259Z,78.59
2018-06-15T22:13:45.715Z,78.15
2018-06-15T22:16:17.942Z,78.48
2018-06-15T22:18:50.700Z,78.87
2018-06-15T22:21:23.961Z,79.00
2018-06-15T22:23:57.620Z,79.23
2018-06-15T22:26:28.670Z,79.15
2018-06-15T22:29:06.463Z,79.35
2018-06-15T22:31:39.717Z,79.37
2018-06-15T22:34:12.292Z,79.54
2018-06-15T22:36:43.150Z,79.41
2018-06-15T22:39:15.296Z,79.61
2018-06-15T22:41:48.367Z,80.12
2018-06-15T22:44:22.340Z,80.06
2018-06-15T22:46:54.253Z,80.17
2018-06-15T22:49:25.499Z,80.79
2018-06-15T22:51:56.543Z,80.84
2018-06-15T22:54:27.572Z,80.77
2018-06-15T22:57:00.279Z,80.92
2018-06-15T22:59:32.018Z,80.83
2018-06-15T23:02:05.319Z,80.95
2018-06-15T23:04:36.883Z,81.48
2018-06-15T23:07:08.213Z,81.82
2018-06-15T23:09:40.289Z,81.50
2018-06-15T23:12:11.993Z,81.78
2018-06-15T23:14:42.783Z,81.92
2018-06-15T23:17:16.695Z,81.86
2018-06-15T23:19:48.359Z,82.13
2018-06-15T23:22:20.358Z,82.10
2018-06-15T23:24:57.191Z,81.88
2018-06-15T23:27:29.134Z,82.11
2018-06-15T23:30:00.403Z,81.68
2018-06-15T23:32:31.933Z,82.22
2018-06-15T23:35:07.499Z,82.56
2018-06-15T23:37:40.355Z,82.30
2018-06-15T23:40:12.885Z,82.33
2018-06-15T23:42:43.800Z,82.39
2018-06-15T23:45:14.722Z,82.78
2018-06-15T23:47:45.574Z,83.42
2018-06-15T23:50:23.446Z,82.94
2018-06-15T23:52:54.358Z,83.08
2018-06-15T23:55:25.353Z,83.17
2018-06-15T23:57:57.397Z,83.45
